West Parishville, New York
Current Conditions -  °F | °C
As of 10:53 AM on Wednesday 22 Oct 2014 (Local Time) from KMSS Reporting Station
Overcast Overcast  
Wind Chill: 37°   Ceiling: 1400
Heat Index: 44°   Visibility: 10mi
Dew Point: 39°   Wind: 14mph
Humidity: 82%   Direction: 50°NE
Pressure: 30.28"   Gusts: NA
Location:  44.6469°N, 74.9157°W
Report Text: KMSS 221453Z AUTO 05012KT 10SM OVC014 07/04 A3028 RMK AO2 SLP256 T00670039 51014
Loading
Personal Weather Stations






























Interactive Weather Map
Tropical Storm Tracking
New forecast layout! Learn more

10-Day Weather Forecast

Advertisements
Track Severe Weather on mobile